sensor_id;sensor_type;location;lat;lon;timestamp;temperature;humidity
41838;DHT22;27511;52.042;5.178;2022-07-21T00:01:48;24.70;99.90
41838;DHT22;27511;52.042;5.178;2022-07-21T00:04:13;24.80;99.90
41838;DHT22;27511;52.042;5.178;2022-07-21T00:06:41;24.80;99.90
41838;DHT22;27511;52.042;5.178;2022-07-21T00:09:07;24.80;99.90
41838;DHT22;27511;52.042;5.178;2022-07-21T00:11:33;24.80;99.90
41838;DHT22;27511;52.042;5.178;2022-07-21T00:13:59;24.80;99.90
41838;DHT22;27511;52.042;5.178;2022-07-21T00:16:24;24.80;99.90
41838;DHT22;27511;52.042;5.178;2022-07-21T00:18:50;24.70;99.90
41838;DHT22;27511;52.042;5.178;2022-07-21T00:21:16;24.60;99.90
41838;DHT22;27511;52.042;5.178;2022-07-21T00:23:41;24.60;99.90
41838;DHT22;27511;52.042;5.178;2022-07-21T00:26:07;24.60;99.90
41838;DHT22;27511;52.042;5.178;2022-07-21T00:28:37;24.50;99.90
41838;DHT22;27511;52.042;5.178;2022-07-21T00:31:03;24.50;99.90
41838;DHT22;27511;52.042;5.178;2022-07-21T00:33:29;24.50;99.90
41838;DHT22;27511;52.042;5.178;2022-07-21T00:35:54;24.50;99.90
41838;DHT22;27511;52.042;5.178;2022-07-21T00:38:20;24.50;99.90
41838;DHT22;27511;52.042;5.178;2022-07-21T00:40:45;24.40;99.90
41838;DHT22;27511;52.042;5.178;2022-07-21T00:43:11;24.40;99.90
41838;DHT22;27511;52.042;5.178;2022-07-21T00:45:37;24.40;99.90
41838;DHT22;27511;52.042;5.178;2022-07-21T00:48:03;24.40;99.90
41838;DHT22;27511;52.042;5.178;2022-07-21T00:50:29;24.40;99.90
41838;DHT22;27511;52.042;5.178;2022-07-21T00:52:56;24.30;99.90
41838;DHT22;27511;52.042;5.178;2022-07-21T00:55:22;24.30;99.90
41838;DHT22;27511;52.042;5.178;2022-07-21T00:57:48;24.30;99.90
41838;DHT22;27511;52.042;5.178;2022-07-21T01:00:18;24.20;99.90
41838;DHT22;27511;52.042;5.178;2022-07-21T01:02:44;24.20;99.90
41838;DHT22;27511;52.042;5.178;2022-07-21T01:05:11;24.10;99.90
41838;DHT22;27511;52.042;5.178;2022-07-21T01:07:41;24.10;99.90
41838;DHT22;27511;52.042;5.178;2022-07-21T01:10:09;24.10;99.90
41838;DHT22;27511;52.042;5.178;2022-07-21T01:12:35;24.20;99.90
41838;DHT22;27511;52.042;5.178;2022-07-21T01:15:01;24.20;99.90
41838;DHT22;27511;52.042;5.178;2022-07-21T01:17:27;24.20;99.90
41838;DHT22;27511;52.042;5.178;2022-07-21T01:19:52;24.10;99.90
41838;DHT22;27511;52.042;5.178;2022-07-21T01:22:18;24.20;99.90
41838;DHT22;27511;52.042;5.178;2022-07-21T01:24:43;24.10;99.90
41838;DHT22;27511;52.042;5.178;2022-07-21T01:27:09;24.10;99.90
41838;DHT22;27511;52.042;5.178;2022-07-21T01:29:35;24.10;99.90
41838;DHT22;27511;52.042;5.178;2022-07-21T01:32:00;24.10;99.90
41838;DHT22;27511;52.042;5.178;2022-07-21T01:34:28;24.10;99.90
41838;DHT22;27511;52.042;5.178;2022-07-21T01:36:53;24.10;99.90
41838;DHT22;27511;52.042;5.178;2022-07-21T01:39:19;24.00;99.90
41838;DHT22;27511;52.042;5.178;2022-07-21T01:42:03;23.90;99.90
41838;DHT22;27511;52.042;5.178;2022-07-21T01:44:29;23.90;99.90
41838;DHT22;27511;52.042;5.178;2022-07-21T01:46:54;24.00;99.90
41838;DHT22;27511;52.042;5.178;2022-07-21T01:49:21;24.00;99.90
41838;DHT22;27511;52.042;5.178;2022-07-21T01:51:47;24.00;99.90
41838;DHT22;27511;52.042;5.178;2022-07-21T01:54:16;24.00;99.90
41838;DHT22;27511;52.042;5.178;2022-07-21T01:56:42;24.00;99.90
41838;DHT22;27511;52.042;5.178;2022-07-21T01:59:08;24.00;99.90
41838;DHT22;27511;52.042;5.178;2022-07-21T02:01:34;24.00;99.90
41838;DHT22;27511;52.042;5.178;2022-07-21T02:04:02;24.00;99.90
41838;DHT22;27511;52.042;5.178;2022-07-21T02:06:28;24.00;99.90
41838;DHT22;27511;52.042;5.178;2022-07-21T02:08:54;24.00;99.90
41838;DHT22;27511;52.042;5.178;2022-07-21T02:11:20;23.90;99.90
41838;DHT22;27511;52.042;5.178;2022-07-21T02:13:46;23.90;99.90
41838;DHT22;27511;52.042;5.178;2022-07-21T02:16:12;23.90;99.90
41838;DHT22;27511;52.042;5.178;2022-07-21T02:18:38;23.90;99.90
41838;DHT22;27511;52.042;5.178;2022-07-21T02:21:05;23.90;99.90
41838;DHT22;27511;52.042;5.178;2022-07-21T02:23:31;23.90;99.90
41838;DHT22;27511;52.042;5.178;2022-07-21T02:25:57;23.90;99.90
41838;DHT22;27511;52.042;5.178;2022-07-21T02:28:24;23.80;99.90
41838;DHT22;27511;52.042;5.178;2022-07-21T02:30:50;23.80;99.90
41838;DHT22;27511;52.042;5.178;2022-07-21T02:33:16;23.80;99.90
41838;DHT22;27511;52.042;5.178;2022-07-21T02:35:42;23.90;99.90
41838;DHT22;27511;52.042;5.178;2022-07-21T02:38:07;23.80;99.90
41838;DHT22;27511;52.042;5.178;2022-07-21T02:40:33;23.90;99.90
41838;DHT22;27511;52.042;5.178;2022-07-21T02:42:59;23.90;99.90
41838;DHT22;27511;52.042;5.178;2022-07-21T02:45:25;23.80;99.90
41838;DHT22;27511;52.042;5.178;2022-07-21T02:47:58;23.80;99.90
41838;DHT22;27511;52.042;5.178;2022-07-21T02:50:27;23.80;99.90
41838;DHT22;27511;52.042;5.178;2022-07-21T02:53:01;23.80;99.90
41838;DHT22;27511;52.042;5.178;2022-07-21T02:55:27;23.80;99.90
41838;DHT22;27511;52.042;5.178;2022-07-21T02:58:13;23.70;99.90
41838;DHT22;27511;52.042;5.178;2022-07-21T03:01:04;23.70;99.90
41838;DHT22;27511;52.042;5.178;2022-07-21T03:03:30;23.80;99.90
41838;DHT22;27511;52.042;5.178;2022-07-21T03:05:57;23.70;99.90
41838;DHT22;27511;52.042;5.178;2022-07-21T03:08:23;23.70;99.90
41838;DHT22;27511;52.042;5.178;2022-07-21T03:10:49;23.70;99.90
41838;DHT22;27511;52.042;5.178;2022-07-21T03:13:15;23.60;99.90
41838;DHT22;27511;52.042;5.178;2022-07-21T03:15:41;23.60;99.90
41838;DHT22;27511;52.042;5.178;2022-07-21T03:18:07;23.60;99.90
41838;DHT22;27511;52.042;5.178;2022-07-21T03:20:34;23.60;99.90
41838;DHT22;27511;52.042;5.178;2022-07-21T03:23:00;23.70;99.90
41838;DHT22;27511;52.042;5.178;2022-07-21T03:25:27;23.70;99.90
41838;DHT22;27511;52.042;5.178;2022-07-21T03:27:53;23.70;99.90
41838;DHT22;27511;52.042;5.178;2022-07-21T03:30:19;23.80;99.90
41838;DHT22;27511;52.042;5.178;2022-07-21T03:32:47;23.80;99.90
41838;DHT22;27511;52.042;5.178;2022-07-21T03:35:13;23.70;99.90
41838;DHT22;27511;52.042;5.178;2022-07-21T03:37:43;23.70;99.90
41838;DHT22;27511;52.042;5.178;2022-07-21T03:40:12;23.70;99.90
41838;DHT22;27511;52.042;5.178;2022-07-21T03:42:37;23.60;99.90
41838;DHT22;27511;52.042;5.178;2022-07-21T03:45:04;23.70;99.90
41838;DHT22;27511;52.042;5.178;2022-07-21T03:47:30;23.70;99.90
41838;DHT22;27511;52.042;5.178;2022-07-21T03:49:55;23.60;99.90
41838;DHT22;27511;52.042;5.178;2022-07-21T03:52:21;23.60;99.90
41838;DHT22;27511;52.042;5.178;2022-07-21T03:54:46;23.60;99.90
41838;DHT22;27511;52.042;5.178;2022-07-21T03:57:12;23.60;99.90
41838;DHT22;27511;52.042;5.178;2022-07-21T03:59:37;23.60;99.90
41838;DHT22;27511;52.042;5.178;2022-07-21T04:02:03;23.60;99.90
41838;DHT22;27511;52.042;5.178;2022-07-21T04:04:28;23.50;99.90
41838;DHT22;27511;52.042;5.178;2022-07-21T04:06:54;23.50;99.90
41838;DHT22;27511;52.042;5.178;2022-07-21T04:09:20;23.40;99.90
41838;DHT22;27511;52.042;5.178;2022-07-21T04:11:45;23.50;99.90
41838;DHT22;27511;52.042;5.178;2022-07-21T04:14:11;23.50;99.90
41838;DHT22;27511;52.042;5.178;2022-07-21T04:16:36;23.50;99.90
41838;DHT22;27511;52.042;5.178;2022-07-21T04:19:02;23.50;99.90
41838;DHT22;27511;52.042;5.178;2022-07-21T04:21:27;23.60;99.90
41838;DHT22;27511;52.042;5.178;2022-07-21T04:23:53;23.60;99.90
41838;DHT22;27511;52.042;5.178;2022-07-21T04:26:19;23.60;99.90
41838;DHT22;27511;52.042;5.178;2022-07-21T04:28:44;23.60;99.90
41838;DHT22;27511;52.042;5.178;2022-07-21T04:31:10;23.60;99.90
41838;DHT22;27511;52.042;5.178;2022-07-21T04:33:35;23.60;99.90
41838;DHT22;27511;52.042;5.178;2022-07-21T04:36:01;23.60;99.90
41838;DHT22;27511;52.042;5.178;2022-07-21T04:38:26;23.50;99.90
41838;DHT22;27511;52.042;5.178;2022-07-21T04:40:52;23.50;99.90
41838;DHT22;27511;52.042;5.178;2022-07-21T04:43:21;23.40;99.90
41838;DHT22;27511;52.042;5.178;2022-07-21T04:45:46;23.60;99.90
41838;DHT22;27511;52.042;5.178;2022-07-21T04:48:12;23.60;99.90
41838;DHT22;27511;52.042;5.178;2022-07-21T04:50:37;23.40;99.90
41838;DHT22;27511;52.042;5.178;2022-07-21T04:53:03;23.40;99.90
41838;DHT22;27511;52.042;5.178;2022-07-21T04:55:29;23.40;99.90
41838;DHT22;27511;52.042;5.178;2022-07-21T04:57:55;23.40;99.90
41838;DHT22;27511;52.042;5.178;2022-07-21T05:00:24;23.30;99.90
41838;DHT22;27511;52.042;5.178;2022-07-21T05:02:51;23.40;99.90
41838;DHT22;27511;52.042;5.178;2022-07-21T05:05:17;23.40;99.90
41838;DHT22;27511;52.042;5.178;2022-07-21T05:07:42;23.40;99.90
41838;DHT22;27511;52.042;5.178;2022-07-21T05:10:15;23.50;99.90
41838;DHT22;27511;52.042;5.178;2022-07-21T05:12:54;23.40;99.90
41838;DHT22;27511;52.042;5.178;2022-07-21T05:15:20;23.40;99.90
41838;DHT22;27511;52.042;5.178;2022-07-21T05:17:45;23.40;99.90
41838;DHT22;27511;52.042;5.178;2022-07-21T05:20:11;23.50;99.90
41838;DHT22;27511;52.042;5.178;2022-07-21T05:22:37;23.40;99.90
41838;DHT22;27511;52.042;5.178;2022-07-21T05:25:04;23.40;99.90
41838;DHT22;27511;52.042;5.178;2022-07-21T05:27:31;23.40;99.90
41838;DHT22;27511;52.042;5.178;2022-07-21T05:29:56;23.20;99.90
41838;DHT22;27511;52.042;5.178;2022-07-21T05:32:22;23.20;99.90
41838;DHT22;27511;52.042;5.178;2022-07-21T05:34:48;23.30;99.90
41838;DHT22;27511;52.042;5.178;2022-07-21T05:37:13;23.20;99.90
41838;DHT22;27511;52.042;5.178;2022-07-21T05:39:42;23.10;99.90
41838;DHT22;27511;52.042;5.178;2022-07-21T05:42:07;23.10;99.90
41838;DHT22;27511;52.042;5.178;2022-07-21T05:44:33;23.30;99.90
41838;DHT22;27511;52.042;5.178;2022-07-21T05:46:58;23.30;99.90
41838;DHT22;27511;52.042;5.178;2022-07-21T05:49:24;23.30;99.90
41838;DHT22;27511;52.042;5.178;2022-07-21T05:51:49;23.30;99.90
41838;DHT22;27511;52.042;5.178;2022-07-21T05:54:15;23.30;99.90
41838;DHT22;27511;52.042;5.178;2022-07-21T05:56:41;23.40;99.90
41838;DHT22;27511;52.042;5.178;2022-07-21T05:59:06;23.50;99.90
41838;DHT22;27511;52.042;5.178;2022-07-21T06:01:33;23.50;99.90
41838;DHT22;27511;52.042;5.178;2022-07-21T06:03:58;23.50;99.90
41838;DHT22;27511;52.042;5.178;2022-07-21T06:06:26;23.60;99.90
41838;DHT22;27511;52.042;5.178;2022-07-21T06:08:52;23.60;99.90
41838;DHT22;27511;52.042;5.178;2022-07-21T06:11:20;23.50;99.90
41838;DHT22;27511;52.042;5.178;2022-07-21T06:13:47;23.60;99.90
41838;DHT22;27511;52.042;5.178;2022-07-21T06:16:12;23.60;99.90
41838;DHT22;27511;52.042;5.178;2022-07-21T06:18:38;23.60;99.90
41838;DHT22;27511;52.042;5.178;2022-07-21T06:21:04;23.70;99.90
41838;DHT22;27511;52.042;5.178;2022-07-21T06:23:31;23.70;99.90
41838;DHT22;27511;52.042;5.178;2022-07-21T06:25:57;23.70;99.90
41838;DHT22;27511;52.042;5.178;2022-07-21T06:28:22;23.80;99.90
41838;DHT22;27511;52.042;5.178;2022-07-21T06:30:48;23.80;99.90
41838;DHT22;27511;52.042;5.178;2022-07-21T06:33:14;23.80;99.90
41838;DHT22;27511;52.042;5.178;2022-07-21T06:35:43;23.80;99.90
41838;DHT22;27511;52.042;5.178;2022-07-21T06:38:08;23.80;99.90
41838;DHT22;27511;52.042;5.178;2022-07-21T06:40:34;23.70;99.90
41838;DHT22;27511;52.042;5.178;2022-07-21T06:43:02;23.60;99.90
41838;DHT22;27511;52.042;5.178;2022-07-21T06:45:28;23.70;99.90
41838;DHT22;27511;52.042;5.178;2022-07-21T06:48:02;23.70;99.90
41838;DHT22;27511;52.042;5.178;2022-07-21T06:50:28;23.70;99.90
41838;DHT22;27511;52.042;5.178;2022-07-21T06:52:53;23.60;99.90
41838;DHT22;27511;52.042;5.178;2022-07-21T06:55:19;23.50;99.90
41838;DHT22;27511;52.042;5.178;2022-07-21T06:57:44;23.50;99.90
41838;DHT22;27511;52.042;5.178;2022-07-21T07:00:10;23.50;99.90
41838;DHT22;27511;52.042;5.178;2022-07-21T07:02:36;23.50;99.90
41838;DHT22;27511;52.042;5.178;2022-07-21T07:05:02;23.60;99.90
41838;DHT22;27511;52.042;5.178;2022-07-21T07:07:28;23.50;99.90
41838;DHT22;27511;52.042;5.178;2022-07-21T07:09:56;23.60;99.90
41838;DHT22;27511;52.042;5.178;2022-07-21T07:12:22;23.60;99.90
41838;DHT22;27511;52.042;5.178;2022-07-21T07:14:47;23.70;99.90
41838;DHT22;27511;52.042;5.178;2022-07-21T07:17:17;23.80;99.90
41838;DHT22;27511;52.042;5.178;2022-07-21T07:19:46;23.90;99.90
41838;DHT22;27511;52.042;5.178;2022-07-21T07:22:12;24.00;99.90
41838;DHT22;27511;52.042;5.178;2022-07-21T07:24:37;23.90;99.90
41838;DHT22;27511;52.042;5.178;2022-07-21T07:27:03;23.90;99.90
41838;DHT22;27511;52.042;5.178;2022-07-21T07:29:28;23.90;99.90
41838;DHT22;27511;52.042;5.178;2022-07-21T07:31:56;23.90;99.90
41838;DHT22;27511;52.042;5.178;2022-07-21T07:34:21;23.90;99.90
41838;DHT22;27511;52.042;5.178;2022-07-21T07:36:47;23.90;99.90
41838;DHT22;27511;52.042;5.178;2022-07-21T07:39:12;23.80;99.90
41838;DHT22;27511;52.042;5.178;2022-07-21T07:41:41;23.60;99.90
41838;DHT22;27511;52.042;5.178;2022-07-21T07:44:06;23.50;99.90
41838;DHT22;27511;52.042;5.178;2022-07-21T07:46:32;23.60;99.90
41838;DHT22;27511;52.042;5.178;2022-07-21T07:48:57;23.50;99.90
41838;DHT22;27511;52.042;5.178;2022-07-21T07:51:24;23.50;99.90
41838;DHT22;27511;52.042;5.178;2022-07-21T07:53:50;23.60;99.90
41838;DHT22;27511;52.042;5.178;2022-07-21T07:56:16;23.40;99.90
41838;DHT22;27511;52.042;5.178;2022-07-21T07:58:42;23.20;99.90
41838;DHT22;27511;52.042;5.178;2022-07-21T08:01:08;23.20;99.90
41838;DHT22;27511;52.042;5.178;2022-07-21T08:03:34;23.40;99.90
41838;DHT22;27511;52.042;5.178;2022-07-21T08:06:00;23.30;99.90
41838;DHT22;27511;52.042;5.178;2022-07-21T08:08:29;23.40;99.90
41838;DHT22;27511;52.042;5.178;2022-07-21T08:10:56;23.50;99.90
41838;DHT22;27511;52.042;5.178;2022-07-21T08:13:22;23.50;99.90
41838;DHT22;27511;52.042;5.178;2022-07-21T08:15:48;23.50;99.90
41838;DHT22;27511;52.042;5.178;2022-07-21T08:18:14;23.50;99.90
41838;DHT22;27511;52.042;5.178;2022-07-21T08:20:40;23.30;99.90
41838;DHT22;27511;52.042;5.178;2022-07-21T08:23:06;23.30;99.90
41838;DHT22;27511;52.042;5.178;2022-07-21T08:25:33;23.40;99.90
41838;DHT22;27511;52.042;5.178;2022-07-21T08:27:59;23.20;99.90
41838;DHT22;27511;52.042;5.178;2022-07-21T08:30:25;23.40;99.90
41838;DHT22;27511;52.042;5.178;2022-07-21T08:32:51;23.30;99.90
41838;DHT22;27511;52.042;5.178;2022-07-21T08:35:17;23.20;99.90
41838;DHT22;27511;52.042;5.178;2022-07-21T08:37:50;23.30;99.90
41838;DHT22;27511;52.042;5.178;2022-07-21T08:40:17;23.30;99.90
41838;DHT22;27511;52.042;5.178;2022-07-21T08:42:45;23.30;99.90
41838;DHT22;27511;52.042;5.178;2022-07-21T08:45:11;23.30;99.90
41838;DHT22;27511;52.042;5.178;2022-07-21T08:47:37;23.10;99.90
41838;DHT22;27511;52.042;5.178;2022-07-21T08:50:03;23.00;99.90
41838;DHT22;27511;52.042;5.178;2022-07-21T08:52:29;23.10;99.90
41838;DHT22;27511;52.042;5.178;2022-07-21T08:54:56;23.10;99.90
41838;DHT22;27511;52.042;5.178;2022-07-21T08:57:21;23.00;99.90
41838;DHT22;27511;52.042;5.178;2022-07-21T08:59:47;23.00;99.90
41838;DHT22;27511;52.042;5.178;2022-07-21T09:02:30;22.90;99.90
41838;DHT22;27511;52.042;5.178;2022-07-21T09:04:57;23.00;99.90
41838;DHT22;27511;52.042;5.178;2022-07-21T09:07:23;23.00;99.90
41838;DHT22;27511;52.042;5.178;2022-07-21T09:10:02;22.90;99.90
41838;DHT22;27511;52.042;5.178;2022-07-21T09:12:28;22.90;99.90
41838;DHT22;27511;52.042;5.178;2022-07-21T09:15:14;22.90;99.90
41838;DHT22;27511;52.042;5.178;2022-07-21T09:17:40;22.80;99.90
41838;DHT22;27511;52.042;5.178;2022-07-21T09:20:21;22.80;99.90
41838;DHT22;27511;52.042;5.178;2022-07-21T09:23:07;22.70;99.90
41838;DHT22;27511;52.042;5.178;2022-07-21T09:25:38;22.60;99.90
41838;DHT22;27511;52.042;5.178;2022-07-21T09:28:23;22.60;99.90
41838;DHT22;27511;52.042;5.178;2022-07-21T09:30:52;22.50;99.90
41838;DHT22;27511;52.042;5.178;2022-07-21T09:35:56;22.20;99.90
41838;DHT22;27511;52.042;5.178;2022-07-21T09:38:22;22.20;99.90
41838;DHT22;27511;52.042;5.178;2022-07-21T09:40:48;22.10;99.90
41838;DHT22;27511;52.042;5.178;2022-07-21T09:43:38;22.20;99.90
41838;DHT22;27511;52.042;5.178;2022-07-21T09:46:13;22.10;99.90
41838;DHT22;27511;52.042;5.178;2022-07-21T09:48:40;22.10;99.90
41838;DHT22;27511;52.042;5.178;2022-07-21T09:51:27;22.30;99.90
41838;DHT22;27511;52.042;5.178;2022-07-21T09:54:10;22.30;99.90
41838;DHT22;27511;52.042;5.178;2022-07-21T09:56:44;22.20;99.90
41838;DHT22;27511;52.042;5.178;2022-07-21T09:59:12;22.30;99.90
41838;DHT22;27511;52.042;5.178;2022-07-21T10:01:38;22.20;99.90
41838;DHT22;27511;52.042;5.178;2022-07-21T10:04:05;22.20;99.90
41838;DHT22;27511;52.042;5.178;2022-07-21T10:06:36;22.10;99.90
41838;DHT22;27511;52.042;5.178;2022-07-21T10:09:04;22.10;99.90
41838;DHT22;27511;52.042;5.178;2022-07-21T10:11:30;22.00;99.90
41838;DHT22;27511;52.042;5.178;2022-07-21T10:13:56;22.00;99.90
41838;DHT22;27511;52.042;5.178;2022-07-21T10:16:22;22.00;99.90
41838;DHT22;27511;52.042;5.178;2022-07-21T10:19:19;21.90;99.90
41838;DHT22;27511;52.042;5.178;2022-07-21T10:24:28;22.10;99.90
41838;DHT22;27511;52.042;5.178;2022-07-21T10:27:03;22.10;99.90
41838;DHT22;27511;52.042;5.178;2022-07-21T10:29:48;22.20;99.90
41838;DHT22;27511;52.042;5.178;2022-07-21T10:32:15;22.30;99.90
41838;DHT22;27511;52.042;5.178;2022-07-21T10:34:41;22.40;99.90
41838;DHT22;27511;52.042;5.178;2022-07-21T10:37:08;22.50;99.90
41838;DHT22;27511;52.042;5.178;2022-07-21T10:39:34;22.60;99.90
41838;DHT22;27511;52.042;5.178;2022-07-21T10:42:00;22.50;99.90
41838;DHT22;27511;52.042;5.178;2022-07-21T10:44:39;22.50;99.90
41838;DHT22;27511;52.042;5.178;2022-07-21T10:47:19;22.50;99.90
41838;DHT22;27511;52.042;5.178;2022-07-21T10:49:59;22.50;99.90
41838;DHT22;27511;52.042;5.178;2022-07-21T10:57:37;22.50;99.90
41838;DHT22;27511;52.042;5.178;2022-07-21T11:00:28;22.40;99.90
41838;DHT22;27511;52.042;5.178;2022-07-21T11:02:59;22.40;99.90
41838;DHT22;27511;52.042;5.178;2022-07-21T11:05:27;22.40;99.90
41838;DHT22;27511;52.042;5.178;2022-07-21T11:08:17;22.30;99.90
41838;DHT22;27511;52.042;5.178;2022-07-21T11:10:49;22.30;99.90
41838;DHT22;27511;52.042;5.178;2022-07-21T11:13:16;22.30;99.90
41838;DHT22;27511;52.042;5.178;2022-07-21T11:15:54;22.40;99.90
41838;DHT22;27511;52.042;5.178;2022-07-21T11:18:23;22.40;99.90
41838;DHT22;27511;52.042;5.178;2022-07-21T11:21:02;22.40;99.90
41838;DHT22;27511;52.042;5.178;2022-07-21T11:26:05;22.50;99.90
41838;DHT22;27511;52.042;5.178;2022-07-21T11:28:31;22.50;99.90
41838;DHT22;27511;52.042;5.178;2022-07-21T11:31:08;22.50;99.90
41838;DHT22;27511;52.042;5.178;2022-07-21T11:33:36;22.60;99.90
41838;DHT22;27511;52.042;5.178;2022-07-21T11:36:03;22.60;99.90
41838;DHT22;27511;52.042;5.178;2022-07-21T11:38:29;22.50;99.90
41838;DHT22;27511;52.042;5.178;2022-07-21T11:41:18;22.50;99.90
41838;DHT22;27511;52.042;5.178;2022-07-21T11:43:45;22.60;99.90
41838;DHT22;27511;52.042;5.178;2022-07-21T11:46:12;22.70;99.90
41838;DHT22;27511;52.042;5.178;2022-07-21T11:48:37;22.80;99.90
41838;DHT22;27511;52.042;5.178;2022-07-21T11:51:04;22.70;99.90
41838;DHT22;27511;52.042;5.178;2022-07-21T11:53:30;22.60;99.90
41838;DHT22;27511;52.042;5.178;2022-07-21T11:55:59;22.70;99.90
41838;DHT22;27511;52.042;5.178;2022-07-21T11:58:25;22.70;99.90
41838;DHT22;27511;52.042;5.178;2022-07-21T12:01:05;22.70;99.90
41838;DHT22;27511;52.042;5.178;2022-07-21T12:03:31;22.80;99.90
41838;DHT22;27511;52.042;5.178;2022-07-21T12:05:57;22.80;99.90
41838;DHT22;27511;52.042;5.178;2022-07-21T12:08:23;22.80;99.90
41838;DHT22;27511;52.042;5.178;2022-07-21T12:10:49;22.80;99.90
41838;DHT22;27511;52.042;5.178;2022-07-21T12:13:15;22.70;99.90
41838;DHT22;27511;52.042;5.178;2022-07-21T12:15:40;22.70;99.90
41838;DHT22;27511;52.042;5.178;2022-07-21T12:18:21;22.70;99.90
41838;DHT22;27511;52.042;5.178;2022-07-21T12:20:49;22.70;99.90
41838;DHT22;27511;52.042;5.178;2022-07-21T12:23:28;22.70;99.90
41838;DHT22;27511;52.042;5.178;2022-07-21T12:25:54;22.70;99.90
41838;DHT22;27511;52.042;5.178;2022-07-21T12:28:21;22.70;99.90
41838;DHT22;27511;52.042;5.178;2022-07-21T12:30:48;22.60;99.90
41838;DHT22;27511;52.042;5.178;2022-07-21T12:33:27;22.70;99.90
41838;DHT22;27511;52.042;5.178;2022-07-21T12:36:04;22.60;99.90
41838;DHT22;27511;52.042;5.178;2022-07-21T12:38:44;22.60;99.90
41838;DHT22;27511;52.042;5.178;2022-07-21T12:41:13;22.40;99.90
41838;DHT22;27511;52.042;5.178;2022-07-21T12:43:38;22.50;99.90
41838;DHT22;27511;52.042;5.178;2022-07-21T12:46:12;22.60;99.90
41838;DHT22;27511;52.042;5.178;2022-07-21T12:48:40;22.70;99.90
41838;DHT22;27511;52.042;5.178;2022-07-21T12:53:39;22.80;99.90
41838;DHT22;27511;52.042;5.178;2022-07-21T12:56:06;22.90;99.90
41838;DHT22;27511;52.042;5.178;2022-07-21T12:58:32;22.90;99.90
41838;DHT22;27511;52.042;5.178;2022-07-21T13:00:57;22.80;99.90
41838;DHT22;27511;52.042;5.178;2022-07-21T13:03:23;22.80;99.90
41838;DHT22;27511;52.042;5.178;2022-07-21T13:05:49;22.80;99.90
41838;DHT22;27511;52.042;5.178;2022-07-21T13:08:14;22.80;99.90
41838;DHT22;27511;52.042;5.178;2022-07-21T13:10:40;22.70;99.90
41838;DHT22;27511;52.042;5.178;2022-07-21T13:13:06;22.70;99.90
41838;DHT22;27511;52.042;5.178;2022-07-21T13:15:31;22.70;99.90
41838;DHT22;27511;52.042;5.178;2022-07-21T13:17:57;22.60;99.90
41838;DHT22;27511;52.042;5.178;2022-07-21T13:20:23;22.70;99.90
41838;DHT22;27511;52.042;5.178;2022-07-21T13:22:48;22.70;99.90
41838;DHT22;27511;52.042;5.178;2022-07-21T13:25:14;22.70;99.90
41838;DHT22;27511;52.042;5.178;2022-07-21T13:27:40;22.70;99.90
41838;DHT22;27511;52.042;5.178;2022-07-21T13:30:06;22.70;99.90
41838;DHT22;27511;52.042;5.178;2022-07-21T13:32:33;22.60;99.90
41838;DHT22;27511;52.042;5.178;2022-07-21T13:35:00;22.60;99.90
41838;DHT22;27511;52.042;5.178;2022-07-21T13:37:26;22.40;99.90
41838;DHT22;27511;52.042;5.178;2022-07-21T13:39:52;22.30;99.90
41838;DHT22;27511;52.042;5.178;2022-07-21T13:42:17;22.40;99.90
41838;DHT22;27511;52.042;5.178;2022-07-21T13:44:43;22.40;99.90
41838;DHT22;27511;52.042;5.178;2022-07-21T13:47:08;22.40;99.90
41838;DHT22;27511;52.042;5.178;2022-07-21T13:49:34;22.40;99.90
41838;DHT22;27511;52.042;5.178;2022-07-21T13:52:00;22.40;99.90
41838;DHT22;27511;52.042;5.178;2022-07-21T13:54:25;22.50;99.90
41838;DHT22;27511;52.042;5.178;2022-07-21T13:56:51;22.50;99.90
41838;DHT22;27511;52.042;5.178;2022-07-21T13:59:16;22.40;99.90
41838;DHT22;27511;52.042;5.178;2022-07-21T14:01:42;22.50;99.90
41838;DHT22;27511;52.042;5.178;2022-07-21T14:04:08;22.60;99.90
41838;DHT22;27511;52.042;5.178;2022-07-21T14:06:34;22.60;99.90
41838;DHT22;27511;52.042;5.178;2022-07-21T14:09:00;22.60;99.90
41838;DHT22;27511;52.042;5.178;2022-07-21T14:11:25;22.60;99.90
41838;DHT22;27511;52.042;5.178;2022-07-21T14:13:56;22.60;99.90
41838;DHT22;27511;52.042;5.178;2022-07-21T14:16:22;22.70;99.90
41838;DHT22;27511;52.042;5.178;2022-07-21T14:18:50;22.70;99.90
41838;DHT22;27511;52.042;5.178;2022-07-21T14:21:16;22.70;99.90
41838;DHT22;27511;52.042;5.178;2022-07-21T14:23:47;22.80;99.90
41838;DHT22;27511;52.042;5.178;2022-07-21T14:26:38;22.80;99.90
41838;DHT22;27511;52.042;5.178;2022-07-21T14:29:07;22.90;99.90
41838;DHT22;27511;52.042;5.178;2022-07-21T14:31:33;23.00;99.90
41838;DHT22;27511;52.042;5.178;2022-07-21T14:33:59;23.10;99.90
41838;DHT22;27511;52.042;5.178;2022-07-21T14:36:25;23.10;99.90
41838;DHT22;27511;52.042;5.178;2022-07-21T14:38:50;23.10;99.90
41838;DHT22;27511;52.042;5.178;2022-07-21T14:41:16;23.10;99.90
41838;DHT22;27511;52.042;5.178;2022-07-21T14:43:42;23.10;99.90
41838;DHT22;27511;52.042;5.178;2022-07-21T14:46:07;23.10;99.90
41838;DHT22;27511;52.042;5.178;2022-07-21T14:48:33;23.00;99.90
41838;DHT22;27511;52.042;5.178;2022-07-21T14:50:58;22.90;99.90
41838;DHT22;27511;52.042;5.178;2022-07-21T14:53:24;22.80;99.90
41838;DHT22;27511;52.042;5.178;2022-07-21T14:55:49;22.70;99.90
41838;DHT22;27511;52.042;5.178;2022-07-21T14:58:15;22.60;99.90
41838;DHT22;27511;52.042;5.178;2022-07-21T15:00:40;22.40;99.90
41838;DHT22;27511;52.042;5.178;2022-07-21T15:03:07;22.40;99.90
41838;DHT22;27511;52.042;5.178;2022-07-21T15:05:33;22.20;99.90
41838;DHT22;27511;52.042;5.178;2022-07-21T15:07:58;22.20;99.90
41838;DHT22;27511;52.042;5.178;2022-07-21T15:10:24;22.10;99.90
41838;DHT22;27511;52.042;5.178;2022-07-21T15:12:49;22.10;99.90
41838;DHT22;27511;52.042;5.178;2022-07-21T15:15:15;22.00;99.90
41838;DHT22;27511;52.042;5.178;2022-07-21T15:17:40;22.10;99.90
41838;DHT22;27511;52.042;5.178;2022-07-21T15:20:07;22.10;99.90
41838;DHT22;27511;52.042;5.178;2022-07-21T15:22:33;22.20;99.90
41838;DHT22;27511;52.042;5.178;2022-07-21T15:25:00;22.20;99.90
41838;DHT22;27511;52.042;5.178;2022-07-21T15:27:27;22.20;99.90
41838;DHT22;27511;52.042;5.178;2022-07-21T15:29:53;22.30;99.90
41838;DHT22;27511;52.042;5.178;2022-07-21T15:32:19;22.20;99.90
41838;DHT22;27511;52.042;5.178;2022-07-21T15:34:44;22.20;99.90
41838;DHT22;27511;52.042;5.178;2022-07-21T15:37:10;22.00;99.90
41838;DHT22;27511;52.042;5.178;2022-07-21T15:39:37;22.00;99.90
41838;DHT22;27511;52.042;5.178;2022-07-21T15:42:06;22.00;99.90
41838;DHT22;27511;52.042;5.178;2022-07-21T15:44:32;22.10;99.90
41838;DHT22;27511;52.042;5.178;2022-07-21T15:46:58;22.10;99.90
41838;DHT22;27511;52.042;5.178;2022-07-21T15:49:23;22.10;99.90